Time;durP1;ratioP1;P1;durP2;ratioP2;P2;SDS_P1;SDS_P2;PMS_P1;PMS_P2;Temp;Humidity;BMP_temperature;BMP_pressure;BME280_temperature;BME280_humidity;BME280_pressure;Samples;Min_cycle;Max_cycle;Signal;HPM_P1;HPM_P2
2023/05/21 00:00:11;;;;;;;13.82;10.30;;;13.20;99.90;;;;;;5096756;28;20481;-51
2023/05/21 00:02:38;;;;;;;11.48;9.32;;;13.20;99.90;;;;;;5089927;28;20024;-49
2023/05/21 00:05:04;;;;;;;13.27;10.35;;;13.10;99.90;;;;;;5110332;28;20016;-51
2023/05/21 00:07:31;;;;;;;14.40;10.10;;;13.10;99.90;;;;;;5085761;28;20481;-51
2023/05/21 00:09:57;;;;;;;13.18;10.30;;;13.10;99.90;;;;;;5101003;28;20019;-51
2023/05/21 00:12:22;;;;;;;12.93;10.65;;;13.10;99.90;;;;;;5089572;28;20366;-49
2023/05/21 00:14:48;;;;;;;12.70;9.55;;;13.10;99.90;;;;;;5100072;28;20030;-50
2023/05/21 00:17:14;;;;;;;14.43;9.98;;;13.00;99.90;;;;;;5098216;28;20044;-53
2023/05/21 00:19:40;;;;;;;15.85;10.18;;;13.00;99.90;;;;;;5090984;28;20447;-49
2023/05/21 00:22:06;;;;;;;12.98;10.20;;;13.00;99.90;;;;;;5110246;28;20038;-44
2023/05/21 00:24:31;;;;;;;14.93;10.55;;;13.00;99.90;;;;;;5110633;28;20392;-42
2023/05/21 00:26:57;;;;;;;13.02;10.05;;;13.00;99.90;;;;;;5110139;28;20045;-45
2023/05/21 00:29:22;;;;;;;13.77;10.23;;;13.00;99.90;;;;;;5110260;28;20053;-44
2023/05/21 00:31:49;;;;;;;15.98;10.20;;;12.90;99.90;;;;;;5090033;28;20062;-42
2023/05/21 00:34:15;;;;;;;13.90;9.68;;;13.00;99.90;;;;;;5103326;28;20020;-45
2023/05/21 00:36:44;;;;;;;14.35;10.27;;;12.90;99.90;;;;;;5110449;28;20389;-45
2023/05/21 00:39:10;;;;;;;13.02;9.95;;;12.90;99.90;;;;;;5110180;28;20023;-42
2023/05/21 00:41:37;;;;;;;14.68;9.85;;;12.90;99.90;;;;;;5109984;28;20024;-44
2023/05/21 00:44:02;;;;;;;13.75;9.57;;;12.90;99.90;;;;;;5108261;28;20554;-43
2023/05/21 00:46:29;;;;;;;12.18;9.43;;;12.90;99.90;;;;;;5110613;28;20065;-42
2023/05/21 00:48:56;;;;;;;11.45;9.55;;;12.90;99.90;;;;;;5109527;28;20035;-43
2023/05/21 00:51:23;;;;;;;12.00;8.57;;;12.80;99.90;;;;;;5108236;28;20027;-42
2023/05/21 00:53:51;;;;;;;13.40;9.93;;;12.80;99.90;;;;;;5109778;27;20342;-43
2023/05/21 00:56:20;;;;;;;11.82;9.57;;;12.80;99.90;;;;;;5108579;28;20047;-52
2023/05/21 00:58:46;;;;;;;13.82;10.00;;;12.80;99.90;;;;;;5110005;28;20067;-42
2023/05/21 01:01:12;;;;;;;13.63;9.65;;;12.80;99.90;;;;;;5096098;28;20103;-44
2023/05/21 01:03:39;;;;;;;12.88;10.05;;;12.70;99.90;;;;;;5087406;28;20541;-42
2023/05/21 01:06:06;;;;;;;14.30;9.82;;;12.70;99.90;;;;;;5101738;28;20016;-43
2023/05/21 01:08:39;;;;;;;11.50;8.85;;;12.70;99.90;;;;;;5101990;28;20039;-43
2023/05/21 01:11:06;;;;;;;14.45;8.30;;;12.60;99.90;;;;;;5081146;28;20111;-44
2023/05/21 01:13:35;;;;;;;12.52;9.32;;;12.60;99.90;;;;;;5105093;28;20427;-42
2023/05/21 01:16:02;;;;;;;13.93;9.00;;;12.60;99.90;;;;;;5102404;28;20013;-44
2023/05/21 01:18:28;;;;;;;12.30;10.20;;;12.60;99.90;;;;;;5087463;28;20396;-43
2023/05/21 01:20:54;;;;;;;11.93;9.30;;;12.60;99.90;;;;;;5098513;28;20027;-43
2023/05/21 01:23:20;;;;;;;13.07;10.02;;;12.60;99.90;;;;;;5109150;28;20026;-45
2023/05/21 01:25:46;;;;;;;13.10;9.32;;;12.50;99.90;;;;;;5109857;28;20027;-43
2023/05/21 01:28:12;;;;;;;13.15;9.25;;;12.50;99.90;;;;;;5109350;28;20445;-43
2023/05/21 01:30:42;;;;;;;12.65;9.38;;;12.40;99.90;;;;;;5109314;28;20076;-43
2023/05/21 01:33:16;;;;;;;11.10;9.20;;;12.40;99.90;;;;;;5108853;28;20023;-43
2023/05/21 01:35:50;;;;;;;10.65;9.05;;;12.50;99.90;;;;;;5092503;28;20501;-45
2023/05/21 01:38:19;;;;;;;13.43;9.10;;;12.40;99.90;;;;;;5109573;28;20081;-43
2023/05/21 01:41:03;;;;;;;13.50;8.95;;;12.40;99.90;;;;;;5109216;28;20051;-42
2023/05/21 01:43:35;;;;;;;12.80;8.27;;;12.40;99.90;;;;;;5090153;28;20073;-43
2023/05/21 01:46:01;;;;;;;16.70;9.50;;;12.30;99.90;;;;;;5100062;28;20515;-42
2023/05/21 01:48:28;;;;;;;10.70;8.52;;;12.30;99.90;;;;;;5108846;28;20126;-46
2023/05/21 01:51:01;;;;;;;19.15;8.50;;;12.30;99.90;;;;;;5107650;28;20051;-42
2023/05/21 01:53:26;;;;;;;13.20;8.73;;;12.30;99.90;;;;;;5108343;28;20028;-43
2023/05/21 01:55:53;;;;;;;11.63;8.73;;;12.30;99.90;;;;;;5092109;28;20768;-45
2023/05/21 01:58:20;;;;;;;11.98;9.07;;;12.20;99.90;;;;;;5107434;28;20061;-43
2023/05/21 02:00:46;;;;;;;10.95;7.82;;;12.20;99.90;;;;;;5099555;28;20111;-43
2023/05/21 02:03:15;;;;;;;11.23;8.25;;;12.10;99.90;;;;;;5088387;28;20102;-45
2023/05/21 02:05:41;;;;;;;14.75;9.15;;;12.20;99.90;;;;;;5105444;28;20477;-44
2023/05/21 02:08:07;;;;;;;12.55;9.43;;;12.10;99.90;;;;;;5108871;28;20103;-46
2023/05/21 02:10:36;;;;;;;15.90;9.30;;;12.10;99.90;;;;;;5124562;28;20028;-42
2023/05/21 02:13:02;;;;;;;13.15;7.82;;;12.10;99.90;;;;;;5107584;28;20019;-46
2023/05/21 02:15:27;;;;;;;11.63;8.52;;;12.10;99.90;;;;;;5094661;28;20519;-43
2023/05/21 02:17:54;;;;;;;12.63;8.88;;;12.10;99.90;;;;;;5108109;28;20172;-43
2023/05/21 02:20:21;;;;;;;15.60;8.82;;;12.00;99.90;;;;;;5108549;28;20516;-43
2023/05/21 02:22:48;;;;;;;12.90;8.40;;;12.00;99.90;;;;;;5107913;28;20153;-43
2023/05/21 02:25:17;;;;;;;9.60;8.02;;;12.00;99.90;;;;;;5097087;28;20020;-43
2023/05/21 02:27:43;;;;;;;11.25;7.45;;;12.00;99.90;;;;;;5088382;28;20116;-44
2023/05/21 02:30:10;;;;;;;11.23;7.93;;;12.00;99.90;;;;;;5098653;28;20158;-44
2023/05/21 02:32:38;;;;;;;10.90;7.80;;;11.90;99.90;;;;;;5110606;28;20020;-44
2023/05/21 02:35:04;;;;;;;9.98;7.65;;;11.90;99.90;;;;;;5112859;28;20509;-44
2023/05/21 02:37:33;;;;;;;11.63;8.98;;;11.90;99.90;;;;;;5112725;28;20496;-45
2023/05/21 02:39:59;;;;;;;11.80;8.60;;;11.90;99.90;;;;;;5112053;28;20080;-43
2023/05/21 02:42:25;;;;;;;10.85;8.48;;;11.80;99.90;;;;;;5086479;28;20635;-44
2023/05/21 02:44:51;;;;;;;11.85;7.78;;;11.80;99.90;;;;;;5108908;28;20080;-43
2023/05/21 02:47:18;;;;;;;12.15;7.57;;;11.80;99.90;;;;;;5090449;28;20035;-43
2023/05/21 02:49:43;;;;;;;9.55;7.78;;;11.70;99.90;;;;;;5100174;28;20166;-46
2023/05/21 02:52:09;;;;;;;15.07;8.15;;;11.70;99.90;;;;;;5111223;28;20535;-45
2023/05/21 02:54:34;;;;;;;10.45;7.28;;;11.70;99.90;;;;;;5112169;28;20385;-46
2023/05/21 02:57:00;;;;;;;13.55;8.30;;;11.70;99.90;;;;;;5112221;28;20374;-44
2023/05/21 02:59:26;;;;;;;12.65;8.25;;;11.60;99.90;;;;;;5099479;27;20028;-43
2023/05/21 03:01:51;;;;;;;9.93;7.53;;;11.60;99.90;;;;;;5096651;28;20579;-43
2023/05/21 03:04:17;;;;;;;11.05;7.82;;;11.60;99.90;;;;;;5095980;28;20202;-44
2023/05/21 03:06:43;;;;;;;9.70;7.63;;;11.60;99.90;;;;;;5096533;28;20359;-44
2023/05/21 03:09:09;;;;;;;11.57;7.82;;;11.60;99.90;;;;;;5098942;28;20016;-44
2023/05/21 03:11:35;;;;;;;9.35;7.32;;;11.50;99.90;;;;;;5096381;28;20081;-45
2023/05/21 03:14:00;;;;;;;11.02;7.90;;;11.50;99.90;;;;;;5091108;28;20197;-43
2023/05/21 03:16:27;;;;;;;10.25;7.70;;;11.40;99.90;;;;;;5091454;28;20067;-43
2023/05/21 03:18:53;;;;;;;10.38;7.28;;;11.40;99.90;;;;;;5091755;28;20008;-42
2023/05/21 03:21:21;;;;;;;10.40;7.45;;;11.40;99.90;;;;;;5097296;28;20076;-42
2023/05/21 03:23:50;;;;;;;11.93;7.80;;;11.40;99.90;;;;;;5096181;28;20035;-44
2023/05/21 03:26:15;;;;;;;11.38;7.85;;;11.40;99.90;;;;;;5090582;28;20485;-42
2023/05/21 03:28:41;;;;;;;13.45;8.52;;;11.40;99.90;;;;;;5092937;28;20028;-43
2023/05/21 03:31:06;;;;;;;10.25;7.72;;;11.40;99.90;;;;;;5092763;28;20032;-43
2023/05/21 03:33:32;;;;;;;11.80;8.55;;;11.40;99.90;;;;;;5095207;28;20162;-42
2023/05/21 03:35:57;;;;;;;11.95;7.85;;;11.30;99.90;;;;;;5093499;28;20028;-42
2023/05/21 03:38:23;;;;;;;13.70;8.25;;;11.30;99.90;;;;;;5090567;28;20020;-46
2023/05/21 03:40:48;;;;;;;11.65;7.28;;;11.40;99.90;;;;;;5095443;28;20385;-43
2023/05/21 03:43:14;;;;;;;11.02;7.50;;;11.30;99.90;;;;;;5094925;28;20562;-44
2023/05/21 03:45:40;;;;;;;11.82;7.53;;;11.30;99.90;;;;;;5089440;28;20032;-43
2023/05/21 03:48:05;;;;;;;12.95;8.32;;;11.30;99.90;;;;;;5081943;28;20055;-43
2023/05/21 03:50:31;;;;;;;11.43;7.38;;;11.30;99.90;;;;;;5079168;28;20078;-44
2023/05/21 03:52:56;;;;;;;10.23;7.68;;;11.30;99.90;;;;;;5073177;28;20157;-47
2023/05/21 03:55:22;;;;;;;13.27;7.65;;;11.30;99.90;;;;;;5070299;28;20078;-43
2023/05/21 03:57:47;;;;;;;11.32;7.30;;;11.30;99.90;;;;;;5070203;28;20033;-43
2023/05/21 04:00:13;;;;;;;11.95;7.60;;;11.30;99.90;;;;;;5070203;28;20023;-43
2023/05/21 04:02:39;;;;;;;13.85;8.40;;;11.40;99.90;;;;;;5069817;28;20093;-43
2023/05/21 04:05:05;;;;;;;12.75;9.23;;;11.40;99.90;;;;;;5070146;28;20024;-43
2023/05/21 04:07:31;;;;;;;17.27;9.88;;;11.40;99.90;;;;;;5070178;28;20024;-43
2023/05/21 04:09:57;;;;;;;13.07;9.20;;;11.40;99.90;;;;;;5070245;28;20517;-44
2023/05/21 04:12:22;;;;;;;12.38;8.77;;;11.40;99.90;;;;;;5048185;28;20025;-44
2023/05/21 04:14:48;;;;;;;12.10;8.90;;;11.50;99.90;;;;;;5066523;28;20020;-43
2023/05/21 04:17:14;;;;;;;12.15;8.40;;;11.50;99.90;;;;;;5051742;28;20017;-44
2023/05/21 04:19:39;;;;;;;17.55;9.07;;;11.50;99.90;;;;;;5070091;28;20401;-43
2023/05/21 04:22:05;;;;;;;12.73;7.97;;;11.50;99.90;;;;;;5070027;28;20074;-44
2023/05/21 04:24:30;;;;;;;10.40;7.72;;;11.50;99.90;;;;;;5068734;28;20356;-47
2023/05/21 04:27:00;;;;;;;11.38;7.85;;;11.60;99.90;;;;;;5069719;28;20032;-44
2023/05/21 04:29:26;;;;;;;13.38;8.02;;;11.60;99.90;;;;;;5069879;28;20090;-43
2023/05/21 04:31:52;;;;;;;11.00;8.05;;;11.60;99.90;;;;;;5068850;28;20020;-43
2023/05/21 04:34:17;;;;;;;18.20;8.02;;;11.70;99.90;;;;;;5069239;28;20107;-43
2023/05/21 04:36:44;;;;;;;12.35;8.63;;;11.70;99.90;;;;;;5070036;28;20076;-43
2023/05/21 04:39:11;;;;;;;10.35;8.25;;;11.80;99.90;;;;;;5068720;28;20047;-46
2023/05/21 04:41:37;;;;;;;11.20;7.63;;;11.80;99.90;;;;;;5056221;28;20031;-43
2023/05/21 04:44:05;;;;;;;12.13;8.82;;;11.90;99.90;;;;;;5068952;28;20090;-45
2023/05/21 04:46:30;;;;;;;13.88;9.38;;;11.90;99.90;;;;;;5069124;28;20036;-43
2023/05/21 04:48:56;;;;;;;12.45;8.48;;;11.90;99.90;;;;;;5089614;28;20493;-43
2023/05/21 04:51:23;;;;;;;10.82;7.57;;;12.00;99.90;;;;;;5094004;28;20400;-43
2023/05/21 04:53:49;;;;;;;13.05;8.45;;;12.00;99.90;;;;;;5109403;28;20067;-42
2023/05/21 04:56:17;;;;;;;16.45;9.98;;;12.10;99.90;;;;;;5098300;28;20024;-42
2023/05/21 04:58:43;;;;;;;12.68;8.23;;;12.10;99.90;;;;;;5089269;28;20492;-42
2023/05/21 05:01:08;;;;;;;12.10;9.15;;;12.10;99.90;;;;;;5098971;28;20401;-41
2023/05/21 05:03:35;;;;;;;10.88;8.52;;;12.20;99.90;;;;;;5109914;28;20023;-42
2023/05/21 05:06:03;;;;;;;12.63;9.27;;;12.20;99.90;;;;;;5108163;28;20020;-42
2023/05/21 05:08:28;;;;;;;14.98;9.65;;;12.30;99.90;;;;;;5109854;28;20047;-44
2023/05/21 05:10:54;;;;;;;13.32;8.57;;;12.30;99.90;;;;;;5109761;28;20257;-43
2023/05/21 05:13:20;;;;;;;15.88;9.05;;;12.40;99.90;;;;;;5107879;28;20319;-43
2023/05/21 05:15:45;;;;;;;14.80;9.18;;;12.50;99.90;;;;;;5109589;28;20090;-42
2023/05/21 05:18:11;;;;;;;12.63;9.32;;;12.60;99.90;;;;;;5109327;28;20028;-42
2023/05/21 05:20:37;;;;;;;15.93;10.18;;;12.70;99.90;;;;;;5108082;28;20015;-43
2023/05/21 05:23:03;;;;;;;13.43;9.55;;;12.80;99.90;;;;;;5099764;28;20050;-47
2023/05/21 05:25:28;;;;;;;14.20;9.13;;;12.90;99.90;;;;;;5095561;28;20020;-44
2023/05/21 05:27:54;;;;;;;18.35;11.35;;;13.00;99.90;;;;;;5089537;28;20460;-43
2023/05/21 05:30:20;;;;;;;13.70;10.07;;;13.10;99.90;;;;;;5101343;28;20012;-49
2023/05/21 05:32:45;;;;;;;15.88;10.57;;;13.20;99.90;;;;;;5109018;28;20307;-44
2023/05/21 05:35:11;;;;;;;14.02;10.70;;;13.20;99.90;;;;;;5109456;28;20481;-44
2023/05/21 05:37:37;;;;;;;15.05;10.95;;;13.30;99.90;;;;;;5109148;28;20020;-44
2023/05/21 05:40:04;;;;;;;13.77;10.77;;;13.40;99.90;;;;;;5108698;27;20103;-44
2023/05/21 05:42:30;;;;;;;20.63;12.48;;;13.60;99.90;;;;;;5108424;28;20020;-43
2023/05/21 05:44:55;;;;;;;19.92;11.00;;;13.70;99.90;;;;;;5108903;28;20015;-44
2023/05/21 05:47:21;;;;;;;18.73;11.02;;;13.80;99.90;;;;;;5109060;28;20031;-44
2023/05/21 05:49:47;;;;;;;15.63;11.45;;;13.90;99.90;;;;;;5094917;28;20077;-44
2023/05/21 05:52:13;;;;;;;16.30;10.88;;;14.00;99.90;;;;;;5123566;27;20442;-43
2023/05/21 05:54:39;;;;;;;16.45;11.52;;;14.10;99.90;;;;;;5101841;28;20028;-43
2023/05/21 05:57:05;;;;;;;22.88;12.88;;;14.10;99.90;;;;;;5088627;28;20020;-43
2023/05/21 05:59:32;;;;;;;18.40;12.70;;;14.20;99.90;;;;;;5102200;28;20066;-44
2023/05/21 06:01:59;;;;;;;18.92;13.60;;;14.30;99.90;;;;;;5108910;28;20019;-43
2023/05/21 06:04:28;;;;;;;18.25;14.25;;;14.30;99.90;;;;;;5108610;28;20027;-43
2023/05/21 06:06:56;;;;;;;18.33;14.38;;;14.40;99.90;;;;;;5106684;28;20028;-44
2023/05/21 06:09:22;;;;;;;17.60;13.00;;;14.40;99.90;;;;;;5107587;28;20016;-44
2023/05/21 06:11:48;;;;;;;17.70;12.23;;;14.50;99.90;;;;;;5108242;28;20023;-43
2023/05/21 06:14:14;;;;;;;22.45;14.82;;;14.50;99.90;;;;;;5106338;28;20447;-40
2023/05/21 06:16:39;;;;;;;19.33;14.75;;;14.70;99.90;;;;;;5102094;28;20095;-42
2023/05/21 06:19:05;;;;;;;17.48;14.35;;;14.70;99.90;;;;;;5101433;28;20024;-41
2023/05/21 06:21:31;;;;;;;20.25;15.35;;;14.80;99.90;;;;;;5091848;28;20020;-41
2023/05/21 06:23:57;;;;;;;22.35;15.75;;;14.90;99.90;;;;;;5090332;28;20048;-41
2023/05/21 06:26:22;;;;;;;23.98;15.68;;;15.10;99.90;;;;;;5088008;28;20109;-43
2023/05/21 06:28:48;;;;;;;23.10;17.23;;;15.20;99.90;;;;;;5088289;28;20063;-41
2023/05/21 06:31:15;;;;;;;18.90;14.77;;;15.30;99.90;;;;;;5086026;28;20035;-42
2023/05/21 06:33:40;;;;;;;21.67;16.60;;;15.40;99.90;;;;;;5087737;28;20012;-41
2023/05/21 06:36:06;;;;;;;22.08;16.13;;;15.60;99.90;;;;;;5087650;28;20512;-42
2023/05/21 06:38:32;;;;;;;27.02;18.33;;;15.60;99.90;;;;;;5086791;28;20024;-40
2023/05/21 06:40:58;;;;;;;21.10;16.00;;;15.60;99.90;;;;;;5085836;28;20524;-42
2023/05/21 06:43:24;;;;;;;27.00;18.52;;;15.60;99.90;;;;;;5089010;28;20073;-42
2023/05/21 06:45:50;;;;;;;26.50;19.15;;;15.80;99.90;;;;;;5087786;28;20020;-42
2023/05/21 06:48:16;;;;;;;22.90;16.58;;;15.80;99.90;;;;;;5087408;28;20036;-42
2023/05/21 06:50:42;;;;;;;25.88;17.73;;;15.80;99.90;;;;;;5087921;28;20076;-43
2023/05/21 06:53:08;;;;;;;24.63;17.73;;;16.00;99.90;;;;;;5068974;28;20375;-42
2023/05/21 06:55:34;;;;;;;21.02;16.45;;;16.00;99.90;;;;;;5056062;28;20540;-43
2023/05/21 06:58:00;;;;;;;23.52;17.25;;;16.10;99.90;;;;;;5067572;28;20024;-42
2023/05/21 07:00:26;;;;;;;22.75;16.58;;;16.10;99.90;;;;;;5049602;28;20512;-42
2023/05/21 07:02:51;;;;;;;27.17;18.65;;;16.30;99.90;;;;;;5067631;28;20017;-44
2023/05/21 07:05:17;;;;;;;26.50;18.73;;;16.40;99.90;;;;;;5068305;28;20024;-43
2023/05/21 07:07:43;;;;;;;27.30;19.92;;;16.60;99.90;;;;;;5068055;28;20027;-41
2023/05/21 07:10:09;;;;;;;27.88;18.15;;;16.90;99.90;;;;;;5066218;28;20039;-41
2023/05/21 07:12:35;;;;;;;25.02;19.60;;;17.00;99.90;;;;;;5049693;28;20029;-43
2023/05/21 07:15:01;;;;;;;24.20;18.38;;;17.10;99.90;;;;;;5059264;28;20028;-42
2023/05/21 07:17:26;;;;;;;24.95;19.42;;;17.30;99.90;;;;;;5046607;28;20082;-42
2023/05/21 07:19:52;;;;;;;24.65;18.25;;;17.50;99.90;;;;;;5044462;28;20085;-43
2023/05/21 07:22:17;;;;;;;25.42;19.70;;;17.70;99.90;;;;;;5070106;28;20037;-41
2023/05/21 07:24:43;;;;;;;24.67;18.33;;;18.00;99.90;;;;;;5067705;28;20326;-41
2023/05/21 07:27:09;;;;;;;28.05;20.52;;;18.10;99.90;;;;;;5045283;28;20028;-42
2023/05/21 07:29:35;;;;;;;29.90;20.80;;;18.40;99.90;;;;;;5070890;28;20020;-42
2023/05/21 07:32:01;;;;;;;24.27;20.45;;;18.60;99.90;;;;;;5049635;28;20025;-42
2023/05/21 07:34:27;;;;;;;29.60;20.95;;;18.80;99.90;;;;;;5049306;28;20103;-43
2023/05/21 07:36:52;;;;;;;30.25;21.20;;;19.00;99.90;;;;;;5048783;28;20032;-43
2023/05/21 07:39:18;;;;;;;28.75;19.58;;;19.00;99.90;;;;;;5069734;28;20025;-42
2023/05/21 07:41:44;;;;;;;28.02;20.77;;;19.10;99.90;;;;;;5070315;28;20025;-42
2023/05/21 07:44:09;;;;;;;23.67;19.52;;;19.20;99.90;;;;;;5051992;28;20024;-42
2023/05/21 07:46:36;;;;;;;22.40;17.60;;;19.50;99.90;;;;;;5058624;28;20021;-44
2023/05/21 07:49:01;;;;;;;20.50;16.70;;;19.80;99.90;;;;;;5052260;28;20060;-45
2023/05/21 07:51:27;;;;;;;26.38;19.40;;;20.00;99.90;;;;;;5082748;28;20059;-44
2023/05/21 07:53:53;;;;;;;22.58;18.42;;;20.10;99.90;;;;;;5090256;28;20024;-42
2023/05/21 07:56:19;;;;;;;26.40;19.83;;;20.20;99.90;;;;;;5089916;28;20031;-42
2023/05/21 07:58:46;;;;;;;25.95;19.45;;;20.20;99.90;;;;;;5087279;28;20052;-42
2023/05/21 08:01:12;;;;;;;21.85;17.95;;;20.20;99.90;;;;;;5076985;28;20039;-42
2023/05/21 08:03:38;;;;;;;24.60;19.17;;;20.20;99.90;;;;;;5070929;28;20028;-42
2023/05/21 08:06:03;;;;;;;24.35;18.40;;;20.30;99.90;;;;;;5073590;28;20366;-47
2023/05/21 08:08:29;;;;;;;23.60;17.83;;;20.20;99.90;;;;;;5083256;28;20063;-44
2023/05/21 08:10:55;;;;;;;21.88;17.48;;;20.20;99.90;;;;;;5088557;28;20038;-43
2023/05/21 08:13:21;;;;;;;24.92;19.08;;;20.20;99.90;;;;;;5063007;28;20021;-44
2023/05/21 08:15:48;;;;;;;20.42;17.15;;;20.20;99.90;;;;;;5085161;28;20056;-43
2023/05/21 08:18:13;;;;;;;22.80;17.60;;;20.20;99.90;;;;;;5070268;28;20106;-43
2023/05/21 08:20:40;;;;;;;27.27;18.23;;;20.20;99.90;;;;;;5066024;28;20065;-43
2023/05/21 08:23:12;;;;;;;21.05;18.20;;;20.30;99.90;;;;;;5071431;28;20393;-43
2023/05/21 08:25:37;;;;;;;24.05;17.80;;;20.30;99.90;;;;;;5090470;28;20023;-43
2023/05/21 08:28:03;;;;;;;22.00;16.70;;;20.30;99.90;;;;;;5090274;28;20020;-43
2023/05/21 08:30:33;;;;;;;23.10;18.25;;;20.30;99.90;;;;;;5071541;28;20126;-42
2023/05/21 08:33:00;;;;;;;22.27;19.08;;;20.40;99.90;;;;;;5089429;28;20024;-42
2023/05/21 08:35:25;;;;;;;24.15;18.38;;;20.40;99.90;;;;;;5089873;28;20411;-43
2023/05/21 08:37:51;;;;;;;24.73;18.42;;;20.40;99.90;;;;;;5090417;28;20095;-43
2023/05/21 08:40:17;;;;;;;24.17;19.25;;;20.50;99.90;;;;;;5089464;28;20476;-45
2023/05/21 08:42:44;;;;;;;25.85;17.38;;;20.50;99.90;;;;;;5089558;28;20024;-43
2023/05/21 08:45:15;;;;;;;24.58;17.70;;;20.60;99.90;;;;;;5089396;28;20024;-42
2023/05/21 08:47:43;;;;;;;24.90;18.60;;;20.60;99.90;;;;;;5078821;28;20406;-43
2023/05/21 08:50:11;;;;;;;24.50;18.77;;;20.70;99.90;;;;;;5090377;28;20080;-43
2023/05/21 08:52:36;;;;;;;24.55;18.75;;;20.80;99.90;;;;;;5108007;28;20028;-43
2023/05/21 08:55:06;;;;;;;21.27;17.63;;;20.90;99.90;;;;;;5109848;28;20512;-46
2023/05/21 08:57:32;;;;;;;21.20;17.17;;;21.00;99.90;;;;;;5109849;28;20028;-43
2023/05/21 08:59:58;;;;;;;24.42;18.65;;;21.10;99.90;;;;;;5110049;28;20258;-43
2023/05/21 09:02:24;;;;;;;22.23;16.83;;;21.30;99.90;;;;;;5109464;28;20063;-43
2023/05/21 09:04:56;;;;;;;20.90;17.67;;;21.50;99.90;;;;;;5109643;28;20140;-44
2023/05/21 09:07:24;;;;;;;20.05;16.17;;;21.80;99.90;;;;;;5110065;28;21257;-44
2023/05/21 09:09:56;;;;;;;21.85;16.27;;;22.00;99.90;;;;;;5107922;28;20508;-42
2023/05/21 09:12:26;;;;;;;20.20;16.40;;;22.30;99.90;;;;;;5107597;28;20032;-42
2023/05/21 09:14:52;;;;;;;19.52;15.98;;;22.70;99.90;;;;;;5109728;28;20023;-44
2023/05/21 09:17:19;;;;;;;21.23;18.23;;;23.30;99.90;;;;;;5091085;28;20039;-42
2023/05/21 09:20:06;;;;;;;23.30;17.65;;;23.80;99.90;;;;;;5093986;28;20026;-43
2023/05/21 09:22:32;;;;;;;19.88;16.13;;;24.30;99.90;;;;;;5108929;28;20035;-46
2023/05/21 09:24:57;;;;;;;19.38;15.40;;;24.70;99.90;;;;;;5108162;28;20027;-43
2023/05/21 09:27:23;;;;;;;21.70;16.67;;;25.20;98.20;;;;;;5109196;28;20476;-44
2023/05/21 09:29:49;;;;;;;18.67;14.75;;;25.30;97.50;;;;;;5109395;28;20035;-43
2023/05/21 09:32:16;;;;;;;18.55;15.10;;;25.30;97.50;;;;;;5108964;28;20399;-45
2023/05/21 09:34:42;;;;;;;17.67;15.40;;;25.60;96.10;;;;;;5108928;28;20027;-44
2023/05/21 09:37:08;;;;;;;18.02;15.82;;;26.00;95.80;;;;;;5109179;28;20442;-43
2023/05/21 09:39:34;;;;;;;17.20;15.43;;;25.90;95.50;;;;;;5109528;28;20028;-44
2023/05/21 09:42:01;;;;;;;19.20;17.20;;;25.80;95.40;;;;;;5106636;28;20031;-42
2023/05/21 09:44:26;;;;;;;19.05;17.05;;;25.70;94.90;;;;;;5107172;28;20039;-42
2023/05/21 09:46:59;;;;;;;19.77;15.90;;;26.00;94.80;;;;;;5091482;28;20020;-44
2023/05/21 09:49:25;;;;;;;19.05;15.98;;;25.90;94.70;;;;;;5053155;28;20024;-44
2023/05/21 09:51:57;;;;;;;20.77;16.52;;;25.70;95.00;;;;;;5070501;28;20020;-42
2023/05/21 09:54:24;;;;;;;18.48;15.85;;;26.10;94.20;;;;;;5088122;28;20616;-45
2023/05/21 09:56:54;;;;;;;15.85;14.20;;;26.20;94.00;;;;;;5088228;28;20409;-43
2023/05/21 09:59:20;;;;;;;18.95;15.85;;;26.30;94.00;;;;;;5070539;28;20111;-43
2023/05/21 10:01:48;;;;;;;19.58;15.70;;;26.30;94.10;;;;;;5070339;28;20024;-43
2023/05/21 10:04:16;;;;;;;16.80;14.93;;;26.30;93.50;;;;;;5087922;28;20393;-42
2023/05/21 10:06:42;;;;;;;17.65;15.45;;;26.50;93.00;;;;;;5088608;28;20024;-44
2023/05/21 10:09:15;;;;;;;17.42;15.57;;;26.70;92.70;;;;;;5088538;28;20024;-43
2023/05/21 10:11:44;;;;;;;16.58;14.93;;;26.80;93.10;;;;;;5087772;28;20035;-46
2023/05/21 10:14:24;;;;;;;21.98;16.23;;;27.10;93.10;;;;;;5087601;28;20108;-44
2023/05/21 10:16:51;;;;;;;;;;;27.70;91.40;;;;;;5074522;28;20028;-45
2023/05/21 10:19:17;;;;;;;16.23;14.55;;;27.90;90.80;;;;;;5068162;28;20447;-46
2023/05/21 10:21:44;;;;;;;15.73;14.15;;;28.20;90.60;;;;;;5081725;28;20055;-46
2023/05/21 10:24:10;;;;;;;16.05;14.45;;;28.10;90.40;;;;;;5087374;28;20099;-43
2023/05/21 10:26:40;;;;;;;16.85;15.15;;;28.10;89.80;;;;;;5088120;28;20073;-44
2023/05/21 10:29:06;;;;;;;17.23;14.93;;;28.20;90.00;;;;;;5088465;28;20485;-44
2023/05/21 10:31:33;;;;;;;16.30;14.43;;;28.20;89.00;;;;;;5070108;28;20024;-42
2023/05/21 10:34:01;;;;;;;18.50;15.18;;;28.10;90.00;;;;;;5088064;28;20473;-43
2023/05/21 10:36:30;;;;;;;17.30;15.20;;;28.20;90.60;;;;;;5088227;28;20028;-43
2023/05/21 10:38:58;;;;;;;20.60;15.57;;;28.40;89.50;;;;;;5070600;28;20157;-42
2023/05/21 10:41:29;;;;;;;19.38;16.10;;;29.20;88.20;;;;;;5069773;28;20267;-43
2023/05/21 10:44:41;;;;;;;19.63;14.10;;;29.70;86.10;;;;;;5074298;28;20035;-43
2023/05/21 10:47:48;;;;;;;15.93;13.18;;;30.20;84.20;;;;;;5014337;28;20033;-43
2023/05/21 10:50:43;;;;;;;16.00;13.68;;;30.80;83.80;;;;;;5107113;28;20081;-43
2023/05/21 10:53:30;;;;;;;15.07;13.55;;;30.60;81.80;;;;;;5108508;28;20020;-44
2023/05/21 10:56:17;;;;;;;16.48;13.13;;;30.50;81.50;;;;;;5110868;28;20023;-42
2023/05/21 10:58:55;;;;;;;14.85;13.30;;;30.20;81.90;;;;;;5112139;28;20099;-43
2023/05/21 11:01:21;;;;;;;16.80;13.50;;;30.50;82.30;;;;;;5112311;28;20024;-43
2023/05/21 11:03:50;;;;;;;15.00;13.40;;;31.20;81.60;;;;;;5112287;28;20057;-45
2023/05/21 11:06:24;;;;;;;19.15;13.65;;;32.10;78.50;;;;;;5110813;28;20023;-45
2023/05/21 11:08:52;;;;;;;14.55;12.93;;;32.80;77.60;;;;;;5110814;28;20020;-43
2023/05/21 11:11:41;;;;;;;14.30;12.82;;;33.50;73.60;;;;;;5093709;28;20067;-43
2023/05/21 11:14:26;;;;;;;23.92;14.98;;;33.70;72.30;;;;;;5099577;28;20377;-44
2023/05/21 11:16:51;;;;;;;15.45;13.32;;;32.70;72.60;;;;;;5112170;28;20020;-41
2023/05/21 11:19:18;;;;;;;14.48;13.05;;;32.50;74.20;;;;;;5112074;28;20315;-41
2023/05/21 11:21:49;;;;;;;14.48;12.98;;;32.60;72.80;;;;;;5112187;28;20099;-44
2023/05/21 11:24:18;;;;;;;14.70;13.20;;;33.30;72.10;;;;;;5099807;28;20035;-43
2023/05/21 11:26:47;;;;;;;14.80;13.20;;;33.20;71.30;;;;;;5111285;28;20027;-43
2023/05/21 11:29:13;;;;;;;14.70;12.65;;;33.40;70.40;;;;;;5111505;28;20023;-40
2023/05/21 11:31:45;;;;;;;18.17;13.65;;;34.00;68.30;;;;;;5109929;28;20388;-41
2023/05/21 11:34:12;;;;;;;14.77;13.27;;;34.70;67.60;;;;;;5109760;28;20016;-41
2023/05/21 11:36:47;;;;;;;17.23;13.00;;;35.00;66.90;;;;;;5111613;28;20103;-42
2023/05/21 11:39:16;;;;;;;15.07;13.15;;;35.20;67.40;;;;;;5094572;28;20026;-43
2023/05/21 11:41:58;;;;;;;17.45;13.70;;;35.50;65.90;;;;;;5091386;28;20020;-41
2023/05/21 11:44:41;;;;;;;13.88;12.05;;;35.80;65.30;;;;;;5099768;28;20093;-42
2023/05/21 11:47:17;;;;;;;12.88;11.57;;;36.00;64.40;;;;;;5111389;28;20028;-43
2023/05/21 11:49:44;;;;;;;15.02;11.70;;;36.30;61.60;;;;;;5111305;27;20020;-42
2023/05/21 11:52:11;;;;;;;12.60;11.40;;;36.70;59.60;;;;;;5109657;28;20053;-42
2023/05/21 11:54:44;;;;;;;13.95;11.73;;;36.30;60.40;;;;;;5097725;28;20016;-42
2023/05/21 11:57:11;;;;;;;14.05;12.65;;;36.30;59.40;;;;;;5102992;28;20012;-42
2023/05/21 11:59:37;;;;;;;17.13;13.23;;;36.00;59.80;;;;;;5095478;28;20040;-41
2023/05/21 12:02:04;;;;;;;13.55;12.25;;;35.40;61.20;;;;;;5093010;28;20065;-42
2023/05/21 12:04:35;;;;;;;15.35;13.20;;;34.70;61.10;;;;;;5091581;28;20378;-42
2023/05/21 12:07:08;;;;;;;14.35;12.85;;;34.30;60.50;;;;;;5093183;28;20427;-42
2023/05/21 12:09:50;;;;;;;14.35;12.85;;;33.40;62.00;;;;;;5093298;28;20023;-41
2023/05/21 12:12:24;;;;;;;14.48;13.07;;;33.20;63.70;;;;;;5087050;28;20027;-41
2023/05/21 12:14:51;;;;;;;15.90;12.95;;;33.00;63.40;;;;;;5086142;28;20456;-43
2023/05/21 12:17:22;;;;;;;14.70;13.15;;;32.90;63.30;;;;;;5090843;28;20020;-42
2023/05/21 12:19:50;;;;;;;13.75;12.25;;;32.70;62.90;;;;;;5090001;28;20111;-41
2023/05/21 12:22:16;;;;;;;16.15;13.68;;;32.60;63.10;;;;;;5092459;28;20024;-45
2023/05/21 12:24:42;;;;;;;13.95;12.23;;;32.30;64.00;;;;;;5089092;27;20410;-41
2023/05/21 12:27:09;;;;;;;14.07;12.35;;;31.90;63.00;;;;;;5092401;28;20082;-41
2023/05/21 12:29:45;;;;;;;15.48;13.52;;;31.40;63.90;;;;;;5091680;28;20023;-41
2023/05/21 12:32:13;;;;;;;15.27;11.93;;;31.20;63.00;;;;;;5091763;28;20031;-44